createdAt,value
2023-03-16T00:00:43.415Z,10.10
2023-03-16T00:03:12.504Z,10.95
2023-03-16T00:05:40.595Z,10.00
2023-03-16T00:08:08.615Z,10.85
2023-03-16T00:10:37.493Z,11.30
2023-03-16T00:13:05.483Z,12.15
2023-03-16T00:15:33.800Z,11.82
2023-03-16T00:18:03.584Z,11.35
2023-03-16T00:20:31.681Z,11.45
2023-03-16T00:23:01.455Z,11.82
2023-03-16T00:25:35.888Z,11.93
2023-03-16T00:28:04.280Z,10.23
2023-03-16T00:30:34.312Z,11.07
2023-03-16T00:33:43.552Z,13.43
2023-03-16T00:36:16.951Z,11.98
2023-03-16T00:38:47.116Z,13.50
2023-03-16T00:41:20.356Z,13.18
2023-03-16T00:43:52.507Z,13.85
2023-03-16T00:46:26.692Z,13.32
2023-03-16T00:48:54.769Z,12.75
2023-03-16T00:51:24.392Z,12.50
2023-03-16T00:53:52.365Z,12.50
2023-03-16T00:56:20.264Z,12.10
2023-03-16T00:58:48.158Z,10.85
2023-03-16T01:01:21.734Z,11.68
2023-03-16T01:03:49.537Z,13.75
2023-03-16T01:06:20.601Z,12.32
2023-03-16T01:08:49.825Z,12.52
2023-03-16T01:11:20.864Z,11.65
2023-03-16T01:13:50.640Z,12.23
2023-03-16T01:16:19.369Z,11.32
2023-03-16T01:18:47.868Z,13.20
2023-03-16T01:21:15.684Z,12.93
2023-03-16T01:23:44.353Z,14.77
2023-03-16T01:26:15.212Z,13.32
2023-03-16T01:28:44.456Z,12.23
2023-03-16T01:31:15.359Z,12.32
2023-03-16T01:33:45.548Z,11.90
2023-03-16T01:36:15.565Z,12.05
2023-03-16T01:38:43.743Z,11.38
2023-03-16T01:41:13.706Z,12.30
2023-03-16T01:43:42.632Z,12.57
2023-03-16T01:46:20.486Z,12.15
2023-03-16T01:48:56.896Z,14.07
2023-03-16T01:51:29.104Z,11.50
2023-03-16T01:54:00.254Z,13.63
2023-03-16T01:56:35.605Z,12.90
2023-03-16T01:59:08.669Z,12.52
2023-03-16T02:01:36.999Z,14.23
2023-03-16T02:04:14.787Z,13.95
2023-03-16T02:06:44.667Z,15.45
2023-03-16T02:09:13.242Z,14.68
2023-03-16T02:11:42.966Z,14.50
2023-03-16T02:14:13.083Z,14.52
2023-03-16T02:16:42.256Z,13.20
2023-03-16T02:19:14.430Z,14.70
2023-03-16T02:21:50.566Z,15.18
2023-03-16T02:24:18.296Z,14.50
2023-03-16T02:26:53.580Z,14.25
2023-03-16T02:29:33.994Z,14.77
2023-03-16T02:32:05.571Z,15.52
2023-03-16T02:34:33.794Z,16.40
2023-03-16T02:37:02.301Z,15.27
2023-03-16T02:39:30.000Z,15.32
2023-03-16T02:41:58.029Z,16.00
2023-03-16T02:44:30.018Z,16.08
2023-03-16T02:47:01.266Z,17.20
2023-03-16T02:49:36.708Z,17.40
2023-03-16T02:52:04.730Z,17.60
2023-03-16T02:54:32.504Z,16.90
2023-03-16T02:57:00.482Z,17.20
2023-03-16T02:59:28.491Z,16.35
2023-03-16T03:01:56.474Z,16.60
2023-03-16T03:04:24.735Z,16.27
2023-03-16T03:06:53.958Z,17.70
2023-03-16T03:09:21.993Z,17.73
2023-03-16T03:11:50.673Z,17.20
2023-03-16T03:14:18.539Z,16.85
2023-03-16T03:16:46.980Z,17.42
2023-03-16T03:19:14.995Z,17.58
2023-03-16T03:21:42.995Z,16.58
2023-03-16T03:24:12.704Z,17.60
2023-03-16T03:26:40.634Z,15.55
2023-03-16T03:29:08.404Z,16.60
2023-03-16T03:31:36.414Z,18.98
2023-03-16T03:34:06.777Z,16.13
2023-03-16T03:36:34.906Z,17.90
2023-03-16T03:39:05.196Z,17.88
2023-03-16T03:41:34.921Z,17.05
2023-03-16T03:44:02.901Z,16.23
2023-03-16T03:46:30.905Z,17.58
2023-03-16T03:49:03.953Z,17.35
2023-03-16T03:51:32.131Z,15.70
2023-03-16T03:54:00.802Z,17.38
2023-03-16T03:56:28.679Z,16.05
2023-03-16T03:58:57.897Z,17.90
2023-03-16T04:01:25.837Z,17.90
2023-03-16T04:03:53.733Z,17.80
2023-03-16T04:06:21.775Z,17.67
2023-03-16T04:08:49.642Z,16.55
2023-03-16T04:11:17.989Z,17.88
2023-03-16T04:13:45.826Z,17.10
2023-03-16T04:16:16.307Z,18.63
2023-03-16T04:18:46.979Z,17.08
2023-03-16T04:21:17.113Z,17.35
2023-03-16T04:23:45.269Z,17.80
2023-03-16T04:26:13.238Z,16.80
2023-03-16T04:28:41.283Z,17.10
2023-03-16T04:31:11.770Z,15.90
2023-03-16T04:33:42.344Z,16.00
2023-03-16T04:36:10.675Z,16.00
2023-03-16T04:38:38.905Z,15.68
2023-03-16T04:41:07.901Z,15.68
2023-03-16T04:43:37.067Z,16.02
2023-03-16T04:46:06.147Z,16.50
2023-03-16T04:48:34.512Z,17.17
2023-03-16T04:51:04.889Z,17.17
2023-03-16T04:53:33.348Z,15.77
2023-03-16T04:56:01.560Z,16.20
2023-03-16T04:58:29.524Z,17.33
2023-03-16T05:00:57.423Z,16.45
2023-03-16T05:03:25.911Z,17.00
2023-03-16T05:05:53.735Z,16.73
2023-03-16T05:08:23.086Z,15.80
2023-03-16T05:10:51.145Z,16.42
2023-03-16T05:13:19.111Z,17.60
2023-03-16T05:15:47.144Z,16.65
2023-03-16T05:18:14.993Z,18.23
2023-03-16T05:20:43.319Z,18.15
2023-03-16T05:23:11.649Z,17.85
2023-03-16T05:25:40.853Z,18.17
2023-03-16T05:28:08.686Z,19.75
2023-03-16T05:30:36.971Z,17.63
2023-03-16T05:33:05.300Z,18.83
2023-03-16T05:35:33.177Z,17.65
2023-03-16T05:38:01.067Z,17.88
2023-03-16T05:40:29.519Z,17.10
2023-03-16T05:43:00.414Z,17.38
2023-03-16T05:45:28.934Z,17.23
2023-03-16T05:47:57.055Z,16.75
2023-03-16T05:50:24.902Z,16.55
2023-03-16T05:52:52.962Z,16.50
2023-03-16T05:55:21.094Z,15.75
2023-03-16T05:57:49.303Z,15.10
2023-03-16T06:00:20.869Z,16.63
2023-03-16T06:02:51.234Z,15.10
2023-03-16T06:05:21.870Z,14.80
2023-03-16T06:07:50.156Z,15.70
2023-03-16T06:10:18.620Z,15.65
2023-03-16T06:12:46.742Z,15.85
2023-03-16T06:15:14.991Z,16.13
2023-03-16T06:17:44.434Z,16.25
2023-03-16T06:20:14.835Z,16.13
2023-03-16T06:22:43.391Z,14.52
2023-03-16T06:25:13.276Z,14.02
2023-03-16T06:27:41.318Z,15.95
2023-03-16T06:30:12.503Z,14.68
2023-03-16T06:32:43.099Z,16.33
2023-03-16T06:35:13.672Z,15.25
2023-03-16T06:37:41.922Z,15.15
2023-03-16T06:40:14.179Z,15.68
2023-03-16T06:42:42.076Z,16.55
2023-03-16T06:45:13.006Z,14.70
2023-03-16T06:47:43.446Z,16.50
2023-03-16T06:50:13.107Z,16.10
2023-03-16T06:52:41.583Z,17.80
2023-03-16T06:55:12.509Z,15.45
2023-03-16T06:57:40.291Z,16.83
2023-03-16T07:00:09.717Z,16.90
2023-03-16T07:02:40.578Z,17.13
2023-03-16T07:05:11.145Z,17.10
2023-03-16T07:07:40.683Z,18.70
2023-03-16T07:10:13.337Z,18.25
2023-03-16T07:12:42.377Z,18.23
2023-03-16T07:15:11.895Z,17.92
2023-03-16T07:17:40.622Z,17.80
2023-03-16T07:20:10.764Z,17.77
2023-03-16T07:22:41.616Z,17.00
2023-03-16T07:25:11.515Z,17.73
2023-03-16T07:27:41.373Z,18.35
2023-03-16T07:30:12.361Z,17.42
2023-03-16T07:32:41.725Z,16.48
2023-03-16T07:35:11.593Z,16.55
2023-03-16T07:37:42.085Z,17.00
2023-03-16T07:40:12.023Z,17.75
2023-03-16T07:42:40.033Z,19.83
2023-03-16T07:45:09.728Z,15.90
2023-03-16T07:47:37.566Z,14.73
2023-03-16T07:50:06.363Z,14.70
2023-03-16T07:52:37.410Z,14.00
2023-03-16T07:55:09.189Z,13.05
2023-03-16T07:57:39.238Z,13.45
2023-03-16T08:00:11.108Z,12.27
2023-03-16T08:02:40.903Z,13.63
2023-03-16T08:05:12.932Z,13.55
2023-03-16T08:07:41.346Z,15.57
2023-03-16T08:10:12.948Z,12.05
2023-03-16T08:12:43.269Z,12.88
2023-03-16T08:15:15.555Z,10.77
2023-03-16T08:17:43.554Z,9.70
2023-03-16T08:20:15.442Z,8.27
2023-03-16T08:22:46.460Z,6.10
2023-03-16T08:25:19.472Z,7.43
2023-03-16T08:27:48.597Z,6.13
2023-03-16T08:30:18.544Z,7.00
2023-03-16T08:32:46.926Z,6.40
2023-03-16T08:35:16.928Z,6.70
2023-03-16T08:37:49.780Z,5.60
2023-03-16T08:40:22.521Z,6.13
2023-03-16T08:42:50.923Z,6.70
2023-03-16T08:45:20.043Z,6.67
2023-03-16T08:47:47.965Z,5.43
2023-03-16T08:50:16.674Z,5.53
2023-03-16T08:52:44.578Z,5.60
2023-03-16T08:55:13.276Z,5.20
2023-03-16T08:57:45.147Z,4.50
2023-03-16T09:00:16.119Z,4.70
2023-03-16T09:02:45.775Z,5.03
2023-03-16T09:05:16.116Z,4.90
2023-03-16T09:08:04.290Z,5.03
2023-03-16T09:10:33.295Z,4.60
2023-03-16T09:13:03.087Z,5.27
2023-03-16T09:15:34.173Z,4.50
2023-03-16T09:18:03.992Z,4.83
2023-03-16T09:20:33.563Z,4.70
2023-03-16T09:23:01.740Z,5.00
2023-03-16T09:25:31.089Z,4.80
2023-03-16T09:27:59.490Z,4.70
2023-03-16T09:30:29.899Z,5.47
2023-03-16T09:32:58.657Z,4.37
2023-03-16T09:35:27.063Z,5.37
2023-03-16T09:38:05.520Z,4.90
2023-03-16T09:40:36.355Z,4.87
2023-03-16T09:43:41.186Z,5.37
2023-03-16T09:46:16.167Z,4.80
2023-03-16T09:48:50.142Z,4.80
2023-03-16T09:51:24.045Z,4.70
2023-03-16T09:53:58.175Z,4.70
2023-03-16T09:56:31.852Z,4.80
2023-03-16T09:59:00.756Z,4.20
2023-03-16T10:01:57.116Z,4.97
2023-03-16T10:04:40.198Z,4.57
2023-03-16T10:07:22.230Z,4.00
2023-03-16T10:09:57.541Z,4.37
2023-03-16T10:12:31.905Z,4.57
2023-03-16T10:15:07.325Z,3.97
2023-03-16T10:17:42.234Z,4.93
2023-03-16T10:20:17.685Z,5.10
2023-03-16T10:22:47.734Z,4.27
2023-03-16T10:25:23.648Z,5.80
2023-03-16T10:27:53.054Z,4.80
2023-03-16T10:30:29.094Z,5.00
2023-03-16T10:33:03.738Z,5.20
2023-03-16T10:35:41.944Z,4.70
2023-03-16T10:38:10.542Z,4.70
2023-03-16T10:40:39.755Z,5.23
2023-03-16T10:43:09.590Z,4.63
2023-03-16T10:45:38.197Z,3.90
2023-03-16T10:48:16.146Z,4.20
2023-03-16T10:50:45.368Z,4.50
2023-03-16T10:53:21.343Z,3.97
2023-03-16T10:55:50.390Z,3.57
2023-03-16T10:58:29.608Z,4.20
2023-03-16T11:01:01.446Z,3.97
2023-03-16T11:03:42.074Z,2.97
2023-03-16T11:06:23.002Z,2.97
2023-03-16T11:08:52.922Z,3.10
2023-03-16T11:11:39.697Z,3.40
2023-03-16T11:14:15.920Z,3.70
2023-03-16T11:16:52.162Z,2.87
2023-03-16T11:19:26.216Z,2.90
2023-03-16T11:22:00.330Z,3.00
2023-03-16T11:24:39.360Z,2.70
2023-03-16T11:27:20.692Z,3.00
2023-03-16T11:30:01.199Z,5.97
2023-03-16T11:32:36.917Z,2.80
2023-03-16T11:35:19.974Z,2.40
2023-03-16T11:38:17.365Z,2.97
2023-03-16T11:41:01.001Z,3.27
2023-03-16T11:43:50.895Z,2.77
2023-03-16T11:46:36.004Z,2.80
2023-03-16T11:49:32.169Z,3.20
2023-03-16T11:52:09.660Z,2.93
2023-03-16T11:54:52.205Z,3.03
2023-03-16T11:57:34.060Z,3.17
2023-03-16T12:00:14.317Z,2.60
2023-03-16T12:03:07.109Z,3.30
2023-03-16T12:05:58.698Z,2.80
2023-03-16T12:08:49.841Z,3.07
2023-03-16T12:11:25.092Z,2.30
2023-03-16T12:14:06.018Z,2.80
2023-03-16T12:16:48.664Z,2.87
2023-03-16T12:19:23.383Z,2.43
2023-03-16T12:22:02.907Z,2.80
2023-03-16T12:24:40.383Z,2.73
2023-03-16T12:27:19.543Z,2.33
2023-03-16T12:32:48.835Z,3.10
2023-03-16T12:35:31.292Z,2.67
2023-03-16T12:38:16.100Z,2.73
2023-03-16T12:40:54.866Z,3.03
2023-03-16T12:43:40.810Z,2.70
2023-03-16T12:46:16.236Z,2.53
2023-03-16T12:48:55.028Z,3.00
2023-03-16T12:51:44.085Z,2.80
2023-03-16T12:54:21.710Z,2.53
2023-03-16T12:56:54.062Z,2.40
2023-03-16T12:59:25.837Z,3.50
2023-03-16T13:02:01.150Z,3.00
2023-03-16T13:04:33.968Z,2.83
2023-03-16T13:07:07.882Z,3.43
2023-03-16T13:09:43.968Z,3.50
2023-03-16T13:12:24.928Z,2.80
2023-03-16T13:14:56.366Z,2.90
2023-03-16T13:17:33.673Z,2.50
2023-03-16T13:20:11.821Z,3.30
2023-03-16T13:22:50.394Z,2.70
2023-03-16T13:25:23.957Z,2.97
2023-03-16T13:27:58.584Z,3.07
2023-03-16T13:30:31.173Z,3.00
2023-03-16T13:33:07.703Z,3.30
2023-03-16T13:35:40.207Z,2.90
2023-03-16T13:38:15.955Z,3.00
2023-03-16T13:40:48.115Z,2.70
2023-03-16T13:43:20.821Z,3.67
2023-03-16T13:45:49.068Z,2.10
2023-03-16T13:48:19.305Z,2.40
2023-03-16T13:50:53.200Z,2.30
2023-03-16T13:53:25.119Z,3.00
2023-03-16T13:55:55.774Z,2.50
2023-03-16T13:58:33.051Z,3.47
2023-03-16T14:01:03.691Z,2.17
2023-03-16T14:03:36.093Z,1.73
2023-03-16T14:06:04.681Z,2.07
2023-03-16T14:08:33.871Z,2.57
2023-03-16T14:11:02.665Z,3.10
2023-03-16T14:13:38.400Z,2.70
2023-03-16T14:16:14.384Z,2.40
2023-03-16T14:18:44.480Z,1.90
2023-03-16T14:21:19.860Z,2.23
2023-03-16T14:23:55.630Z,2.10
2023-03-16T14:26:23.924Z,2.30
2023-03-16T14:28:58.558Z,2.03
2023-03-16T14:31:35.837Z,1.90
2023-03-16T14:34:07.696Z,2.40
2023-03-16T14:36:37.928Z,2.30
2023-03-16T14:39:14.198Z,2.23
2023-03-16T14:41:42.524Z,2.20
2023-03-16T14:44:21.770Z,1.40
2023-03-16T14:46:50.685Z,3.00
2023-03-16T14:49:22.779Z,1.83
2023-03-16T14:51:53.795Z,1.70
2023-03-16T14:54:23.523Z,1.60
2023-03-16T14:56:52.692Z,1.67
2023-03-16T14:59:23.057Z,2.20
2023-03-16T15:01:52.696Z,2.50
2023-03-16T15:04:27.880Z,2.60
2023-03-16T15:06:59.023Z,1.80
2023-03-16T15:09:37.306Z,2.00
2023-03-16T15:12:06.179Z,2.00
2023-03-16T15:14:52.743Z,1.73
2023-03-16T15:17:20.579Z,2.10
2023-03-16T15:19:50.406Z,1.60
2023-03-16T15:22:24.167Z,1.73
2023-03-16T15:24:52.593Z,1.80
2023-03-16T15:27:34.001Z,2.13
2023-03-16T15:30:03.914Z,1.87
2023-03-16T15:32:35.258Z,1.70
2023-03-16T15:35:04.281Z,1.80
2023-03-16T15:37:33.116Z,1.40
2023-03-16T15:40:01.357Z,1.80
2023-03-16T15:42:29.351Z,1.53
2023-03-16T15:44:57.233Z,1.83
2023-03-16T15:47:26.721Z,2.00
2023-03-16T15:49:54.459Z,1.50
2023-03-16T15:52:31.722Z,2.23
2023-03-16T15:55:04.442Z,1.80
2023-03-16T15:57:32.442Z,1.87
2023-03-16T16:00:01.576Z,1.80
2023-03-16T16:02:32.607Z,1.50
2023-03-16T16:05:01.106Z,1.87
2023-03-16T16:07:28.924Z,1.80
2023-03-16T16:09:56.870Z,2.33
2023-03-16T16:12:44.237Z,1.73
2023-03-16T16:15:21.725Z,2.07
2023-03-16T16:18:18.615Z,1.70
2023-03-16T16:20:41.331Z,2.30
2023-03-16T16:23:11.189Z,1.87
2023-03-16T16:25:42.283Z,3.17
2023-03-16T16:28:19.671Z,2.20
2023-03-16T16:30:48.178Z,1.77
2023-03-16T16:33:26.255Z,2.03
2023-03-16T16:35:54.327Z,1.80
2023-03-16T16:38:23.343Z,2.00
2023-03-16T16:40:59.206Z,2.17
2023-03-16T16:43:37.254Z,2.40
2023-03-16T16:46:12.833Z,1.93
2023-03-16T16:48:45.747Z,1.93
2023-03-16T16:51:18.562Z,1.93
2023-03-16T16:53:47.866Z,2.57
2023-03-16T16:56:18.940Z,2.00
2023-03-16T16:58:47.177Z,2.00
2023-03-16T17:01:24.176Z,2.27
2023-03-16T17:03:55.945Z,2.70
2023-03-16T17:06:38.383Z,2.80
2023-03-16T17:11:59.666Z,3.13
2023-03-16T17:14:31.624Z,2.90
2023-03-16T17:17:01.712Z,2.70
2023-03-16T17:19:40.480Z,2.60
2023-03-16T17:22:28.375Z,3.07
2023-03-16T17:25:00.613Z,2.63
2023-03-16T17:27:33.486Z,2.80
2023-03-16T17:30:01.929Z,2.77
2023-03-16T17:32:31.260Z,2.77
2023-03-16T17:35:01.023Z,3.10
2023-03-16T17:37:29.150Z,3.60
2023-03-16T17:39:58.167Z,2.77
2023-03-16T17:42:26.706Z,2.70
2023-03-16T17:44:54.587Z,3.00
2023-03-16T17:47:24.832Z,3.10
2023-03-16T17:49:53.619Z,4.17
2023-03-16T17:52:26.017Z,3.27
2023-03-16T17:54:55.505Z,4.20
2023-03-16T17:57:29.611Z,3.30
2023-03-16T17:59:57.830Z,3.87
2023-03-16T18:02:40.049Z,4.20
2023-03-16T18:05:17.549Z,3.55
2023-03-16T18:07:47.112Z,3.58
2023-03-16T18:10:16.844Z,3.75
2023-03-16T18:12:46.428Z,3.50
2023-03-16T18:15:19.684Z,3.47
2023-03-16T18:17:48.420Z,3.20
2023-03-16T18:20:33.688Z,3.40
2023-03-16T18:23:11.985Z,3.65
2023-03-16T18:25:40.427Z,2.95
2023-03-16T18:28:10.391Z,2.95
2023-03-16T18:30:40.177Z,3.20
2023-03-16T18:33:14.373Z,3.47
2023-03-16T18:35:43.856Z,3.65
2023-03-16T18:38:20.473Z,3.97
2023-03-16T18:40:48.512Z,3.42
2023-03-16T18:43:18.284Z,4.13
2023-03-16T18:45:47.077Z,3.63
2023-03-16T18:48:23.419Z,4.20
2023-03-16T18:50:51.512Z,3.90
2023-03-16T18:53:22.494Z,3.80
2023-03-16T18:55:51.199Z,4.20
2023-03-16T18:58:22.370Z,3.83
2023-03-16T19:00:55.321Z,3.50
2023-03-16T19:03:26.613Z,3.03
2023-03-16T19:05:59.933Z,3.85
2023-03-16T19:08:30.263Z,3.63
2023-03-16T19:11:04.665Z,3.75
2023-03-16T19:13:33.450Z,4.20
2023-03-16T19:16:03.380Z,3.60
2023-03-16T19:18:32.911Z,4.78
2023-03-16T19:21:01.429Z,4.50
2023-03-16T19:23:34.772Z,4.40
2023-03-16T19:26:04.927Z,4.40
2023-03-16T19:28:37.262Z,4.40
2023-03-16T19:34:26.416Z,4.70
2023-03-16T19:36:54.548Z,4.10
2023-03-16T19:39:23.926Z,5.32
2023-03-16T19:41:58.259Z,5.80
2023-03-16T19:44:29.095Z,5.35
2023-03-16T19:46:59.842Z,4.40
2023-03-16T19:49:29.358Z,5.20
2023-03-16T19:52:02.791Z,5.10
2023-03-16T19:54:34.080Z,4.85
2023-03-16T19:57:12.446Z,4.55
2023-03-16T19:59:42.363Z,4.93
2023-03-16T20:02:26.612Z,4.82
2023-03-16T20:04:54.763Z,5.30
2023-03-16T20:07:23.036Z,4.75
2023-03-16T20:09:52.401Z,5.00
2023-03-16T20:12:23.546Z,5.20
2023-03-16T20:14:52.488Z,4.93
2023-03-16T20:17:33.030Z,4.80
2023-03-16T20:20:02.195Z,4.97
2023-03-16T20:22:30.430Z,5.63
2023-03-16T20:25:02.245Z,5.32
2023-03-16T20:27:31.616Z,5.20
2023-03-16T20:29:59.783Z,4.88
2023-03-16T20:32:35.660Z,5.07
2023-03-16T20:35:12.885Z,4.70
2023-03-16T20:37:40.649Z,4.60
2023-03-16T20:40:11.177Z,5.20
2023-03-16T20:42:41.312Z,4.93
2023-03-16T20:45:17.596Z,5.30
2023-03-16T20:47:46.892Z,5.45
2023-03-16T20:50:35.874Z,5.10
2023-03-16T20:56:05.630Z,4.47
2023-03-16T20:58:38.145Z,4.75
2023-03-16T21:01:07.009Z,4.97
2023-03-16T21:03:34.910Z,5.00
2023-03-16T21:06:03.162Z,5.20
2023-03-16T21:08:31.787Z,5.50
2023-03-16T21:11:00.579Z,4.35
2023-03-16T21:13:32.919Z,4.70
2023-03-16T21:16:04.217Z,5.07
2023-03-16T21:18:33.191Z,4.60
2023-03-16T21:21:02.094Z,4.82
2023-03-16T21:23:41.163Z,5.30
2023-03-16T21:26:20.823Z,4.32
2023-03-16T21:28:56.864Z,4.85
2023-03-16T21:31:25.932Z,5.07
2023-03-16T21:33:57.010Z,6.20
2023-03-16T21:36:28.805Z,5.00
2023-03-16T21:38:57.456Z,5.40
2023-03-16T21:41:25.733Z,5.25
2023-03-16T21:43:55.982Z,5.80
2023-03-16T21:46:26.050Z,4.85
2023-03-16T21:48:56.087Z,5.32
2023-03-16T21:51:28.872Z,5.57
2023-03-16T21:53:56.880Z,5.10
2023-03-16T21:56:26.560Z,5.30
2023-03-16T21:58:55.906Z,5.68
2023-03-16T22:01:26.164Z,5.30
2023-03-16T22:03:57.474Z,5.55
2023-03-16T22:06:28.104Z,5.82
2023-03-16T22:08:56.947Z,4.85
2023-03-16T22:11:28.893Z,5.57
2023-03-16T22:14:00.836Z,4.90
2023-03-16T22:16:35.627Z,6.10
2023-03-16T22:19:04.516Z,5.60
2023-03-16T22:21:35.707Z,5.78
2023-03-16T22:24:05.921Z,7.00
2023-03-16T22:26:34.211Z,5.50
2023-03-16T22:29:07.718Z,5.32
2023-03-16T22:31:39.781Z,5.75
2023-03-16T22:34:08.537Z,5.60
2023-03-16T22:36:38.426Z,5.20
2023-03-16T22:39:12.291Z,5.38
2023-03-16T22:41:40.387Z,5.30
2023-03-16T22:44:20.716Z,5.20
2023-03-16T22:46:52.219Z,4.45
2023-03-16T22:49:25.179Z,5.10
2023-03-16T22:51:55.634Z,5.03
2023-03-16T22:54:30.619Z,5.20
2023-03-16T22:56:59.173Z,5.68
2023-03-16T22:59:28.810Z,5.28
2023-03-16T23:01:59.566Z,5.45
2023-03-16T23:04:32.737Z,5.25
2023-03-16T23:07:02.197Z,5.35
2023-03-16T23:09:30.157Z,4.60
2023-03-16T23:11:59.422Z,4.57
2023-03-16T23:14:32.346Z,4.65
2023-03-16T23:17:00.447Z,5.43
2023-03-16T23:19:32.993Z,5.13
2023-03-16T23:22:04.568Z,5.10
2023-03-16T23:24:34.230Z,5.00
2023-03-16T23:27:03.100Z,4.88
2023-03-16T23:29:33.843Z,5.68
2023-03-16T23:32:01.870Z,4.75
2023-03-16T23:34:30.043Z,4.50
2023-03-16T23:36:57.842Z,5.32
2023-03-16T23:39:26.155Z,4.82
2023-03-16T23:41:53.962Z,5.30
2023-03-16T23:44:24.718Z,4.63
2023-03-16T23:46:54.351Z,5.60
2023-03-16T23:49:25.481Z,5.68
2023-03-16T23:51:54.332Z,5.00
2023-03-16T23:54:24.473Z,4.85
2023-03-16T23:56:52.755Z,4.55
2023-03-16T23:59:21.394Z,5.10
